Time;durP1;ratioP1;P1;durP2;ratioP2;P2;SDS_P1;SDS_P2;PMS_P1;PMS_P2;Temp;Humidity;BMP_temperature;BMP_pressure;BME280_temperature;BME280_humidity;BME280_pressure;Samples;Min_cycle;Max_cycle;Signal;HPM_P1;HPM_P2
2023/10/28 00:01:30;;;;;;;;;;;10.00;99.90;;;;;;8357332;28;19936;-70
2023/10/28 00:05:32;;;;;;;;;;;10.10;99.90;;;;;;8357537;28;19991;-70
2023/10/28 00:09:34;;;;;;;;;;;10.20;99.90;;;;;;8353676;28;19925;-70
2023/10/28 00:13:35;;;;;;;;;;;10.20;99.90;;;;;;8358392;28;19924;-70
2023/10/28 00:17:37;;;;;;;;;;;10.20;99.90;;;;;;8359501;28;20364;-70
2023/10/28 00:21:39;;;;;;;;;;;10.20;99.90;;;;;;8356630;28;20011;-70
2023/10/28 00:25:42;;;;;;;;;;;10.30;99.90;;;;;;8358068;28;19963;-70
2023/10/28 00:29:48;;;;;;;;;;;10.30;99.90;;;;;;8354940;28;19948;-70
2023/10/28 00:33:50;;;;;;;;;;;10.40;99.90;;;;;;8359546;28;19935;-70
2023/10/28 00:37:51;;;;;;;;;;;10.40;99.90;;;;;;8358176;28;19933;-70
2023/10/28 00:41:53;;;;;;;;;;;10.40;99.90;;;;;;8359101;28;19932;-70
2023/10/28 00:56:01;;;;;;;;;;;10.60;99.90;;;;;;8358064;28;20012;-70
2023/10/28 01:00:06;;;;;;;;;;;10.60;99.90;;;;;;8356166;28;19925;-70
2023/10/28 01:04:08;;;;;;;;;;;10.70;99.90;;;;;;8357415;28;19960;-70
2023/10/28 01:08:10;;;;;;;;;;;10.70;99.90;;;;;;8354617;28;20236;-70
2023/10/28 01:12:13;;;;;;;;;;;10.70;99.90;;;;;;8354392;28;19924;-71
2023/10/28 01:16:15;;;;;;;;;;;10.70;99.90;;;;;;8355700;28;20388;-70
2023/10/28 01:20:17;;;;;;;;;;;10.70;99.90;;;;;;8355651;28;19947;-70
2023/10/28 01:24:18;;;;;;;;;;;10.70;99.90;;;;;;8356186;28;19929;-70
2023/10/28 01:28:20;;;;;;;;;;;10.80;99.90;;;;;;8355579;28;20406;-70
2023/10/28 01:32:22;;;;;;;;;;;10.80;99.90;;;;;;8339994;28;19940;-70
2023/10/28 01:36:23;;;;;;;;;;;10.80;99.90;;;;;;8355216;28;19928;-70
2023/10/28 01:40:25;;;;;;;;;;;10.90;99.90;;;;;;8352685;28;19955;-70
2023/10/28 01:44:27;;;;;;;;;;;10.90;99.90;;;;;;8357513;28;19928;-70
2023/10/28 01:48:29;;;;;;;;;;;10.90;99.90;;;;;;8353713;28;20300;-70
2023/10/28 01:52:30;;;;;;;;;;;10.90;99.90;;;;;;8334910;28;20296;-69
2023/10/28 01:56:32;;;;;;;;;;;11.00;99.90;;;;;;8357856;28;19939;-70
2023/10/28 02:00:34;;;;;;;;;;;11.00;99.90;;;;;;8352326;28;20386;-70
2023/10/28 02:04:36;;;;;;;;;;;11.00;99.90;;;;;;8338447;28;20019;-70
2023/10/28 02:08:38;;;;;;;;;;;11.10;99.90;;;;;;8348509;28;19925;-70
2023/10/28 02:12:39;;;;;;;;;;;11.10;99.90;;;;;;8353314;28;19978;-70
2023/10/28 02:16:41;;;;;;;;;;;11.10;99.90;;;;;;8357079;28;19928;-70
2023/10/28 02:20:43;;;;;;;;;;;11.20;99.90;;;;;;8353261;28;19925;-70
2023/10/28 02:24:44;;;;;;;;;;;11.10;99.90;;;;;;8353526;28;20380;-70
2023/10/28 02:28:46;;;;;;;;;;;11.20;99.90;;;;;;8350562;28;19924;-69
2023/10/28 02:32:48;;;;;;;;;;;11.20;99.90;;;;;;8355652;28;20402;-70
2023/10/28 02:36:50;;;;;;;;;;;11.20;99.90;;;;;;8356626;28;20001;-70
2023/10/28 02:40:51;;;;;;;;;;;11.20;99.90;;;;;;8353479;28;19928;-70
2023/10/28 02:44:53;;;;;;;;;;;11.20;99.90;;;;;;8356823;28;19935;-70
2023/10/28 02:48:54;;;;;;;;;;;11.20;99.90;;;;;;8351802;28;19929;-70
2023/10/28 02:53:00;;;;;;;;;;;11.20;99.90;;;;;;8354943;28;20015;-70
2023/10/28 02:57:01;;;;;;;;;;;11.20;99.90;;;;;;8353772;28;19935;-70
2023/10/28 03:01:10;;;;;;;;;;;11.20;99.90;;;;;;8346815;28;19939;-70
2023/10/28 03:05:12;;;;;;;;;;;11.30;99.90;;;;;;8354412;28;19955;-70
2023/10/28 03:09:14;;;;;;;;;;;11.20;99.90;;;;;;8349397;28;20392;-70
2023/10/28 03:13:15;;;;;;;;;;;11.20;99.90;;;;;;8353130;28;19956;-70
2023/10/28 03:17:17;;;;;;;;;;;11.20;99.90;;;;;;8334543;28;19959;-70
2023/10/28 03:21:19;;;;;;;;;;;11.20;99.90;;;;;;8351217;28;20428;-70
2023/10/28 03:25:21;;;;;;;;;;;11.20;99.90;;;;;;8331304;28;20293;-70
2023/10/28 03:29:22;;;;;;;;;;;11.20;99.90;;;;;;8350067;28;19929;-70
2023/10/28 03:33:26;;;;;;;;;;;11.20;99.90;;;;;;8352467;28;19925;-70
2023/10/28 03:37:28;;;;;;;;;;;11.20;99.90;;;;;;8351376;28;19933;-69
2023/10/28 03:41:30;;;;;;;;;;;11.20;99.90;;;;;;8352700;28;20421;-69
2023/10/28 03:45:31;;;;;;;;;;;11.20;99.90;;;;;;8352789;28;19925;-70
2023/10/28 03:49:33;;;;;;;;;;;11.20;99.90;;;;;;8350616;28;19932;-70
2023/10/28 03:53:35;;;;;;;;;;;11.20;99.90;;;;;;8354742;28;19972;-70
2023/10/28 03:57:36;;;;;;;;;;;11.20;99.90;;;;;;8352272;28;19932;-70
2023/10/28 04:01:38;;;;;;;;;;;11.20;99.90;;;;;;8350298;28;19979;-69
2023/10/28 04:05:40;;;;;;;;;;;11.20;99.90;;;;;;8345015;28;20326;-70
2023/10/28 04:09:41;;;;;;;;;;;11.20;99.90;;;;;;8358321;28;19929;-71
2023/10/28 04:13:43;;;;;;;;;;;11.20;99.90;;;;;;8349463;28;19928;-70
2023/10/28 04:17:45;;;;;;;;;;;11.20;99.90;;;;;;8350386;28;19929;-69
2023/10/28 04:21:46;;;;;;;;;;;11.10;99.90;;;;;;8354373;28;19925;-70
2023/10/28 04:25:48;;;;;;;;;;;11.10;99.90;;;;;;8355508;28;19948;-69
2023/10/28 04:29:50;;;;;;;;;;;11.00;99.90;;;;;;8353503;28;19931;-70
2023/10/28 04:33:52;;;;;;;;;;;11.10;99.90;;;;;;8358344;28;19928;-70
2023/10/28 04:37:54;;;;;;;;;;;11.10;99.90;;;;;;8358615;28;19924;-71
2023/10/28 04:41:55;;;;;;;;;;;11.10;99.90;;;;;;8358001;28;19952;-70
2023/10/28 04:45:57;;;;;;;;;;;11.10;99.90;;;;;;8365417;28;19926;-70
2023/10/28 04:49:59;;;;;;;;;;;11.10;99.90;;;;;;8357739;28;19970;-70
2023/10/28 04:54:00;;;;;;;;;;;11.20;99.90;;;;;;8348790;28;20349;-70
2023/10/28 04:58:02;;;;;;;;;;;11.20;99.90;;;;;;8356201;28;20580;-70
2023/10/28 05:02:04;;;;;;;;;;;11.20;99.90;;;;;;8358438;28;19940;-70
2023/10/28 05:06:09;;;;;;;;;;;11.20;99.90;;;;;;8358332;28;19990;-71
2023/10/28 05:10:11;;;;;;;;;;;11.20;99.90;;;;;;8349969;28;19925;-70
2023/10/28 05:14:14;;;;;;;;;;;11.20;99.90;;;;;;8358096;28;20063;-70
2023/10/28 05:18:15;;;;;;;;;;;11.20;99.90;;;;;;8355829;28;19986;-70
2023/10/28 05:22:18;;;;;;;;;;;11.20;99.90;;;;;;8354708;28;19970;-70
2023/10/28 05:26:20;;;;;;;;;;;11.20;99.90;;;;;;8339582;28;19925;-70
2023/10/28 05:30:23;;;;;;;;;;;11.10;99.90;;;;;;8355213;28;19928;-70
2023/10/28 05:34:25;;;;;;;;;;;11.20;99.90;;;;;;8357066;28;20383;-70
2023/10/28 05:38:26;;;;;;;;;;;11.10;99.90;;;;;;8357031;28;19932;-70
2023/10/28 05:42:28;;;;;;;;;;;11.20;99.90;;;;;;8354432;28;19925;-70
2023/10/28 05:46:29;;;;;;;;;;;11.20;99.90;;;;;;8365837;28;19940;-71
2023/10/28 05:50:31;;;;;;;;;;;11.20;99.90;;;;;;8354188;28;19956;-70
2023/10/28 05:54:33;;;;;;;;;;;11.20;99.90;;;;;;8356106;28;19929;-70
2023/10/28 05:58:36;;;;;;;;;;;11.20;99.90;;;;;;8353195;28;20600;-70
2023/10/28 06:02:38;;;;;;;;;;;11.20;99.90;;;;;;8349274;28;19925;-70
2023/10/28 06:06:40;;;;;;;;;;;11.20;99.90;;;;;;8330702;28;19924;-70
2023/10/28 06:10:43;;;;;;;;;;;11.20;99.90;;;;;;8330083;28;19933;-70
2023/10/28 06:14:47;;;;;;;;;;;11.20;99.90;;;;;;8355409;28;19931;-70
2023/10/28 06:18:48;;;;;;;;;;;11.10;99.90;;;;;;8341961;28;19960;-70
2023/10/28 06:22:51;;;;;;;;;;;11.10;99.90;;;;;;8351428;28;19925;-70
2023/10/28 06:26:54;;;;;;;;;;;11.10;99.90;;;;;;8353259;28;19975;-70
2023/10/28 06:30:57;;;;;;;;;;;11.10;99.90;;;;;;8352109;28;20311;-71
2023/10/28 06:34:59;;;;;;;;;;;11.10;99.90;;;;;;8348878;28;19928;-70
2023/10/28 06:39:02;;;;;;;;;;;11.10;99.90;;;;;;8354727;28;19929;-70
2023/10/28 06:43:04;;;;;;;;;;;11.10;99.90;;;;;;8349969;28;19939;-70
2023/10/28 06:47:06;;;;;;;;;;;11.10;99.90;;;;;;8350422;28;19925;-70
2023/10/28 06:51:08;;;;;;;;;;;11.10;99.90;;;;;;8351223;28;19932;-70
2023/10/28 06:55:12;;;;;;;;;;;11.10;99.90;;;;;;8349721;28;19929;-70
2023/10/28 06:59:14;;;;;;;;;;;11.20;99.90;;;;;;8353428;28;19979;-70
2023/10/28 07:03:15;;;;;;;;;;;11.20;99.90;;;;;;8348861;28;20415;-70
2023/10/28 07:07:17;;;;;;;;;;;11.20;99.90;;;;;;8355000;28;19924;-70
2023/10/28 07:11:19;;;;;;;;;;;11.20;99.90;;;;;;8348137;28;19925;-70
2023/10/28 07:15:21;;;;;;;;;;;11.20;99.90;;;;;;8346731;28;19933;-70
2023/10/28 07:19:23;;;;;;;;;;;11.20;99.90;;;;;;8351904;28;19933;-70
2023/10/28 07:23:27;;;;;;;;;;;11.30;99.90;;;;;;8351701;28;19933;-70
2023/10/28 07:27:31;;;;;;;;;;;11.30;99.90;;;;;;8347383;28;19932;-70
2023/10/28 07:31:33;;;;;;;;;;;11.30;99.90;;;;;;8349122;28;19956;-70
2023/10/28 07:35:34;;;;;;;;;;;11.30;99.90;;;;;;8350672;28;19925;-70
2023/10/28 07:39:38;;;;;;;;;;;11.40;99.90;;;;;;8352444;28;19929;-70
2023/10/28 07:43:40;;;;;;;;;;;11.40;99.90;;;;;;8348266;28;19932;-70
2023/10/28 07:47:41;;;;;;;;;;;11.50;99.90;;;;;;8351023;28;19941;-70
2023/10/28 07:51:43;;;;;;;;;;;11.50;99.90;;;;;;8335661;28;20644;-70
2023/10/28 07:55:45;;;;;;;;;;;11.50;99.90;;;;;;8331480;28;19932;-70
2023/10/28 07:59:46;;;;;;;;;;;11.50;99.90;;;;;;8353879;28;19955;-70
2023/10/28 08:03:51;;;;;;;;;;;11.50;99.90;;;;;;8357059;28;19932;-70
2023/10/28 08:07:52;;;;;;;;;;;11.50;99.90;;;;;;8357768;28;19970;-70
2023/10/28 08:11:54;;;;;;;;;;;11.60;99.90;;;;;;8345021;28;20619;-70
2023/10/28 08:15:56;;;;;;;;;;;11.60;99.90;;;;;;8349159;28;19928;-70
2023/10/28 08:19:57;;;;;;;;;;;11.60;99.90;;;;;;8356520;28;19971;-71
2023/10/28 08:24:00;;;;;;;;;;;11.60;99.90;;;;;;8359117;28;20420;-70
2023/10/28 08:28:02;;;;;;;;;;;11.60;99.90;;;;;;8358144;28;19931;-70
2023/10/28 08:32:04;;;;;;;;;;;11.60;99.90;;;;;;8359896;28;19925;-70
2023/10/28 08:36:07;;;;;;;;;;;11.60;99.90;;;;;;8357330;28;19925;-69
2023/10/28 08:40:12;;;;;;;;;;;11.70;99.90;;;;;;8356738;28;19970;-70
2023/10/28 08:44:14;;;;;;;;;;;11.70;99.90;;;;;;8355405;28;20617;-70
2023/10/28 08:48:17;;;;;;;;;;;11.80;99.90;;;;;;8349682;28;19999;-70
2023/10/28 08:52:21;;;;;;;;;;;11.80;99.90;;;;;;8353967;28;19940;-70
2023/10/28 08:56:24;;;;;;;;;;;11.90;99.90;;;;;;8331882;28;19978;-70
2023/10/28 09:00:26;;;;;;;;;;;11.90;99.90;;;;;;8350980;28;19933;-70
2023/10/28 09:04:28;;;;;;;;;;;12.00;99.90;;;;;;8351478;28;19925;-69
2023/10/28 09:08:30;;;;;;;;;;;12.00;99.90;;;;;;8332656;28;19960;-70
2023/10/28 09:12:32;;;;;;;;;;;12.00;99.90;;;;;;8349627;28;19972;-70
2023/10/28 09:16:34;;;;;;;;;;;12.00;99.90;;;;;;8322552;28;19925;-70
2023/10/28 09:20:37;;;;;;;;;;;12.00;99.90;;;;;;8322057;28;19929;-70
2023/10/28 09:24:43;;;;;;;;;;;12.10;99.90;;;;;;8321266;28;20478;-69
2023/10/28 09:28:44;;;;;;;;;;;12.20;99.90;;;;;;8324060;28;19929;-69
2023/10/28 09:32:46;;;;;;;;;;;12.20;99.90;;;;;;8322793;28;19925;-69
2023/10/28 09:36:48;;;;;;;;;;;12.30;99.90;;;;;;8317840;28;19929;-70
2023/10/28 09:40:53;;;;;;;;;;;12.30;99.90;;;;;;8321628;28;19983;-70
2023/10/28 09:44:55;;;;;;;;;;;12.40;99.90;;;;;;8320543;28;19969;-69
2023/10/28 09:48:58;;;;;;;;;;;12.50;99.90;;;;;;8324368;28;20418;-69
2023/10/28 09:53:02;;;;;;;;;;;12.60;99.90;;;;;;8324639;28;19986;-70
2023/10/28 09:57:04;;;;;;;;;;;12.70;99.90;;;;;;8321557;28;19929;-70
2023/10/28 10:01:12;;;;;;;;;;;12.70;99.90;;;;;;8320953;28;19982;-69
2023/10/28 10:05:23;;;;;;;;;;;12.70;99.90;;;;;;8320846;28;19987;-69
2023/10/28 10:09:25;;;;;;;;;;;12.70;99.90;;;;;;8318651;28;20284;-68
2023/10/28 10:13:26;;;;;;;;;;;12.80;99.90;;;;;;8321512;28;19979;-70
2023/10/28 10:17:48;;;;;;;;;;;12.80;99.90;;;;;;8319651;28;19947;-69
2023/10/28 10:21:51;;;;;;;;;;;12.90;99.90;;;;;;8334404;28;19925;-69
2023/10/28 10:25:54;;;;;;;;;;;13.00;99.90;;;;;;8321619;28;19925;-69
2023/10/28 10:30:02;;;;;;;;;;;13.20;99.90;;;;;;8319000;28;20341;-69
2023/10/28 10:34:06;;;;;;;;;;;13.40;99.90;;;;;;8319114;28;20292;-68
2023/10/28 10:38:09;;;;;;;;;;;13.50;99.90;;;;;;8320216;28;20392;-69
2023/10/28 10:42:12;;;;;;;;;;;13.50;99.90;;;;;;8316530;28;19932;-69
2023/10/28 10:46:14;;;;;;;;;;;13.40;99.90;;;;;;8319058;28;19925;-70
2023/10/28 10:50:15;;;;;;;;;;;13.40;99.90;;;;;;8318871;28;19926;-69
2023/10/28 10:54:20;;;;;;;;;;;13.30;99.90;;;;;;8320110;28;20032;-70
2023/10/28 10:58:22;;;;;;;;;;;13.40;99.90;;;;;;8332892;28;19929;-69
2023/10/28 11:02:24;;;;;;;;;;;13.40;99.90;;;;;;8318900;28;19924;-69
2023/10/28 11:06:26;;;;;;;;;;;13.30;99.90;;;;;;8319364;28;20715;-69
2023/10/28 11:10:28;;;;;;;;;;;13.40;99.90;;;;;;8321432;28;20336;-69
2023/10/28 11:14:30;;;;;;;;;;;13.50;99.90;;;;;;8321674;28;19926;-70
2023/10/28 11:18:32;;;;;;;;;;;13.50;99.90;;;;;;8323625;28;19931;-69
2023/10/28 11:22:34;;;;;;;;;;;13.60;99.90;;;;;;8322322;28;19929;-69
2023/10/28 11:26:36;;;;;;;;;;;13.70;99.90;;;;;;8300625;28;19979;-69
2023/10/28 11:30:38;;;;;;;;;;;13.80;99.90;;;;;;8320015;28;20376;-69
2023/10/28 11:34:40;;;;;;;;;;;14.10;99.90;;;;;;8321427;28;19925;-70
2023/10/28 11:38:44;;;;;;;;;;;14.40;99.90;;;;;;8318801;28;19964;-69
2023/10/28 11:42:45;;;;;;;;;;;14.60;99.90;;;;;;8318917;28;20235;-69
2023/10/28 11:46:47;;;;;;;;;;;14.50;99.90;;;;;;8318671;28;19975;-69
2023/10/28 11:50:48;;;;;;;;;;;14.30;99.90;;;;;;8316374;28;19932;-69
2023/10/28 11:54:50;;;;;;;;;;;14.30;99.90;;;;;;8321005;28;20404;-70
2023/10/28 11:58:52;;;;;;;;;;;14.30;99.90;;;;;;8318722;28;19929;-69
2023/10/28 12:02:53;;;;;;;;;;;14.20;99.90;;;;;;8319255;28;19929;-69
2023/10/28 12:06:57;;;;;;;;;;;14.20;99.90;;;;;;8318266;28;19952;-69
2023/10/28 12:11:01;;;;;;;;;;;14.30;99.90;;;;;;8317156;28;20129;-70
2023/10/28 12:15:03;;;;;;;;;;;14.40;99.90;;;;;;8320413;28;19933;-69
2023/10/28 12:19:05;;;;;;;;;;;14.40;99.90;;;;;;8317789;28;20357;-69
2023/10/28 12:23:09;;;;;;;;;;;14.30;99.90;;;;;;8317913;28;20282;-69
2023/10/28 12:27:11;;;;;;;;;;;14.30;99.90;;;;;;8322624;28;19987;-69
2023/10/28 12:31:12;;;;;;;;;;;14.30;99.90;;;;;;8314981;28;19979;-69
2023/10/28 12:35:14;;;;;;;;;;;14.40;99.90;;;;;;8319676;28;19929;-70
2023/10/28 12:39:16;;;;;;;;;;;14.40;99.90;;;;;;8317276;28;20427;-70
2023/10/28 12:43:19;;;;;;;;;;;14.50;99.90;;;;;;8318833;28;20118;-69
2023/10/28 12:47:21;;;;;;;;;;;14.50;99.90;;;;;;8318595;28;19933;-69
2023/10/28 12:51:22;;;;;;;;;;;14.60;99.90;;;;;;8324620;28;19929;-69
2023/10/28 13:05:31;;;;;;;;;;;14.60;99.90;;;;;;8328041;28;19963;-69
2023/10/28 13:09:33;;;;;;;;;;;14.70;99.90;;;;;;8325379;28;20277;-69
2023/10/28 13:13:35;;;;;;;;;;;14.60;99.90;;;;;;8326912;28;19929;-69
2023/10/28 13:17:39;;;;;;;;;;;14.50;99.90;;;;;;8307994;28;19936;-70
2023/10/28 13:21:41;;;;;;;;;;;14.50;99.90;;;;;;8325305;28;19976;-69
2023/10/28 13:25:43;;;;;;;;;;;14.50;99.90;;;;;;8324672;28;19929;-69
2023/10/28 13:29:45;;;;;;;;;;;14.40;99.90;;;;;;8322891;28;20418;-69
2023/10/28 13:33:46;;;;;;;;;;;14.40;99.90;;;;;;8323477;28;19929;-68
2023/10/28 13:37:49;;;;;;;;;;;14.40;99.90;;;;;;8324861;28;19933;-69
2023/10/28 13:41:51;;;;;;;;;;;14.40;99.90;;;;;;8320502;28;19975;-69
2023/10/28 13:45:53;;;;;;;;;;;14.40;99.90;;;;;;8322728;28;20371;-70
2023/10/28 13:49:55;;;;;;;;;;;14.40;99.90;;;;;;8322902;28;19943;-69
2023/10/28 13:53:56;;;;;;;;;;;14.50;99.90;;;;;;8325846;28;19925;-69
2023/10/28 13:57:58;;;;;;;;;;;14.60;99.90;;;;;;8319451;28;20431;-69
2023/10/28 14:02:00;;;;;;;;;;;14.80;99.90;;;;;;8321553;28;19978;-69
2023/10/28 14:06:09;;;;;;;;;;;15.00;99.90;;;;;;8327104;28;19933;-70
2023/10/28 14:10:10;;;;;;;;;;;15.20;99.90;;;;;;8322814;28;19983;-69
2023/10/28 14:14:13;;;;;;;;;;;15.40;99.90;;;;;;8334103;28;19940;-69
2023/10/28 14:18:17;;;;;;;;;;;15.60;99.90;;;;;;8324096;28;19925;-69
2023/10/28 14:22:22;;;;;;;;;;;15.90;99.90;;;;;;8336916;28;19929;-70
2023/10/28 14:26:23;;;;;;;;;;;16.30;99.90;;;;;;8322167;28;19928;-70
2023/10/28 14:30:25;;;;;;;;;;;16.50;99.90;;;;;;8325231;28;19925;-69
2023/10/28 14:34:29;;;;;;;;;;;16.60;99.90;;;;;;8321914;28;19933;-69
2023/10/28 14:38:31;;;;;;;;;;;16.60;99.90;;;;;;8320355;28;19936;-70
2023/10/28 14:42:38;;;;;;;;;;;16.60;99.90;;;;;;8324407;28;19929;-69
2023/10/28 14:46:40;;;;;;;;;;;16.50;99.90;;;;;;8323363;28;19972;-69
2023/10/28 14:50:45;;;;;;;;;;;16.30;99.90;;;;;;8321758;28;19925;-69
2023/10/28 14:54:47;;;;;;;;;;;16.10;99.90;;;;;;8321360;28;19932;-70
2023/10/28 14:58:49;;;;;;;;;;;15.80;99.90;;;;;;8321682;28;19983;-70
2023/10/28 15:02:50;;;;;;;;;;;15.60;99.90;;;;;;8322359;28;19965;-69
2023/10/28 15:06:52;;;;;;;;;;;15.40;99.90;;;;;;8320915;28;20274;-70
2023/10/28 15:10:53;;;;;;;;;;;15.30;99.90;;;;;;8322742;28;19932;-69
2023/10/28 15:14:55;;;;;;;;;;;15.20;99.90;;;;;;8325762;28;20408;-70
2023/10/28 15:18:58;;;;;;;;;;;15.10;99.90;;;;;;8324244;28;19929;-70
2023/10/28 15:23:00;;;;;;;;;;;15.10;99.90;;;;;;8321719;28;19972;-70
2023/10/28 15:27:02;;;;;;;;;;;15.00;99.90;;;;;;8321996;28;19929;-70
2023/10/28 15:31:05;;;;;;;;;;;14.90;99.90;;;;;;8321456;28;19925;-70
2023/10/28 15:45:27;;;;;;;;;;;14.80;99.90;;;;;;8320885;28;19936;-70
2023/10/28 15:49:30;;;;;;;;;;;14.80;99.90;;;;;;8322006;28;20237;-70
2023/10/28 15:53:34;;;;;;;;;;;14.60;99.90;;;;;;8320016;28;19940;-71
2023/10/28 15:57:36;;;;;;;;;;;14.60;99.90;;;;;;8320476;28;19929;-70
2023/10/28 16:01:38;;;;;;;;;;;14.60;99.90;;;;;;8319194;28;20315;-70
2023/10/28 16:05:39;;;;;;;;;;;14.50;99.90;;;;;;8324878;28;19929;-70
2023/10/28 16:09:42;;;;;;;;;;;14.50;99.90;;;;;;8321927;28;19924;-70
2023/10/28 16:13:43;;;;;;;;;;;14.40;99.90;;;;;;8319884;28;20365;-70
2023/10/28 16:17:46;;;;;;;;;;;14.30;99.90;;;;;;8319969;28;19940;-70
2023/10/28 16:21:49;;;;;;;;;;;14.30;99.90;;;;;;8321215;28;20503;-70
2023/10/28 16:25:50;;;;;;;;;;;14.20;99.90;;;;;;8326963;28;20631;-70
2023/10/28 16:29:52;;;;;;;;;;;14.20;99.90;;;;;;8325274;28;19929;-70
2023/10/28 16:33:54;;;;;;;;;;;14.10;99.90;;;;;;8326479;28;19999;-70
2023/10/28 16:37:56;;;;;;;;;;;14.00;99.90;;;;;;8328643;28;19925;-70
2023/10/28 16:41:58;;;;;;;;;;;13.90;99.90;;;;;;8326875;28;19929;-70
2023/10/28 16:46:00;;;;;;;;;;;13.90;99.90;;;;;;8325683;28;20403;-70
2023/10/28 16:50:04;;;;;;;;;;;13.90;99.90;;;;;;8326244;28;20012;-70
2023/10/28 16:54:07;;;;;;;;;;;13.80;99.90;;;;;;8326414;28;19929;-70
2023/10/28 16:58:08;;;;;;;;;;;13.80;99.90;;;;;;8327084;28;19924;-70
2023/10/28 17:02:10;;;;;;;;;;;13.70;99.90;;;;;;8326436;28;19929;-70
2023/10/28 17:06:12;;;;;;;;;;;13.70;99.90;;;;;;8328908;28;20426;-70
2023/10/28 17:10:14;;;;;;;;;;;13.70;99.90;;;;;;8323077;28;19932;-70
2023/10/28 17:14:16;;;;;;;;;;;13.60;99.90;;;;;;8324392;28;19936;-70
2023/10/28 17:18:17;;;;;;;;;;;13.50;99.90;;;;;;8324346;28;19933;-70
2023/10/28 17:22:19;;;;;;;;;;;13.50;99.90;;;;;;8323770;28;19929;-70
2023/10/28 17:26:21;;;;;;;;;;;13.40;99.90;;;;;;8322608;28;19987;-70
2023/10/28 17:30:24;;;;;;;;;;;13.40;99.90;;;;;;8324444;28;19936;-70
2023/10/28 17:34:26;;;;;;;;;;;13.40;99.90;;;;;;8321646;28;19925;-70
2023/10/28 17:38:29;;;;;;;;;;;13.40;99.90;;;;;;8324749;28;19925;-70
2023/10/28 17:42:31;;;;;;;;;;;13.40;99.90;;;;;;8324183;28;19932;-70
2023/10/28 17:46:32;;;;;;;;;;;13.30;99.90;;;;;;8325756;28;19956;-70
2023/10/28 17:50:35;;;;;;;;;;;13.30;99.90;;;;;;8323050;28;20269;-70
2023/10/28 17:54:37;;;;;;;;;;;13.20;99.90;;;;;;8325627;28;20012;-70
2023/10/28 17:58:39;;;;;;;;;;;13.20;99.90;;;;;;8324084;28;19925;-70
2023/10/28 18:02:41;;;;;;;;;;;13.20;99.90;;;;;;8323462;28;19932;-70
2023/10/28 18:06:43;;;;;;;;;;;13.20;99.90;;;;;;8322910;28;19933;-70
2023/10/28 18:10:45;;;;;;;;;;;13.10;99.90;;;;;;8324430;28;19925;-70
2023/10/28 18:14:47;;;;;;;;;;;13.10;99.90;;;;;;8323435;28;19926;-70
2023/10/28 18:18:49;;;;;;;;;;;13.00;99.90;;;;;;8323726;28;19929;-70
2023/10/28 18:22:52;;;;;;;;;;;13.00;99.90;;;;;;8323016;28;19925;-70
2023/10/28 18:26:54;;;;;;;;;;;13.00;99.90;;;;;;8320665;28;20016;-70
2023/10/28 18:31:02;;;;;;;;;;;13.00;99.90;;;;;;8323175;28;20012;-70
2023/10/28 18:35:09;;;;;;;;;;;13.00;99.90;;;;;;8323866;28;19931;-70
2023/10/28 18:39:11;;;;;;;;;;;13.00;99.90;;;;;;8323778;28;20354;-70
2023/10/28 18:43:13;;;;;;;;;;;13.00;99.90;;;;;;8322936;28;20312;-70
2023/10/28 18:47:16;;;;;;;;;;;12.90;99.90;;;;;;8326830;28;20333;-70
2023/10/28 18:51:18;;;;;;;;;;;12.90;99.90;;;;;;8324718;28;19948;-70
2023/10/28 18:55:20;;;;;;;;;;;12.90;99.90;;;;;;8321649;28;20380;-70
2023/10/28 18:59:21;;;;;;;;;;;12.90;99.90;;;;;;8322128;28;20012;-70
2023/10/28 19:03:23;;;;;;;;;;;12.90;99.90;;;;;;8320973;28;19940;-70
2023/10/28 19:07:25;;;;;;;;;;;12.80;99.90;;;;;;8302881;28;20349;-70
2023/10/28 19:11:27;;;;;;;;;;;12.80;99.90;;;;;;8316323;28;19929;-70
2023/10/28 19:15:29;;;;;;;;;;;12.80;99.90;;;;;;8317224;28;19936;-70
2023/10/28 19:19:30;;;;;;;;;;;12.80;99.90;;;;;;8323532;28;19928;-70
2023/10/28 19:23:32;;;;;;;;;;;12.80;99.90;;;;;;8324835;28;19971;-70
2023/10/28 19:27:34;;;;;;;;;;;12.80;99.90;;;;;;8321167;28;19929;-70
2023/10/28 19:31:36;;;;;;;;;;;12.80;99.90;;;;;;8323017;28;19926;-70
2023/10/28 19:35:37;;;;;;;;;;;12.80;99.90;;;;;;8320274;28;19936;-70
2023/10/28 19:39:39;;;;;;;;;;;12.80;99.90;;;;;;8319287;28;19931;-70
2023/10/28 19:43:41;;;;;;;;;;;12.80;99.90;;;;;;8319922;28;19925;-70
2023/10/28 19:47:44;;;;;;;;;;;12.80;99.90;;;;;;8316416;28;20480;-70
2023/10/28 19:51:46;;;;;;;;;;;12.80;99.90;;;;;;8324024;28;20292;-70
2023/10/28 19:55:47;;;;;;;;;;;12.90;99.90;;;;;;8323611;28;19960;-70
2023/10/28 19:59:52;;;;;;;;;;;12.90;99.90;;;;;;8327638;28;19931;-70
2023/10/28 20:03:54;;;;;;;;;;;12.90;99.90;;;;;;8341678;28;20643;-70
2023/10/28 20:23:41;;;;;;;;;;;12.80;99.90;;;;;;8325637;28;20448;-70
2023/10/28 20:27:43;;;;;;;;;;;12.70;99.90;;;;;;8347619;28;19929;-70
2023/10/28 20:31:44;;;;;;;;;;;12.70;99.90;;;;;;8331186;28;19980;-70
2023/10/28 20:35:46;;;;;;;;;;;12.70;99.90;;;;;;8329606;28;19933;-70
2023/10/28 20:39:47;;;;;;;;;;;12.70;99.90;;;;;;8331190;28;19970;-70
2023/10/28 20:43:50;;;;;;;;;;;12.70;99.90;;;;;;8330967;28;19932;-70
2023/10/28 20:47:52;;;;;;;;;;;12.70;99.90;;;;;;8329113;28;19936;-70
2023/10/28 20:51:53;;;;;;;;;;;12.70;99.90;;;;;;8331794;28;19925;-70
2023/10/28 20:55:55;;;;;;;;;;;12.60;99.90;;;;;;8328855;28;19933;-70
2023/10/28 20:59:57;;;;;;;;;;;12.60;99.90;;;;;;8335072;28;19936;-70
2023/10/28 21:03:58;;;;;;;;;;;12.50;99.90;;;;;;8353833;28;20820;-70
2023/10/28 21:08:01;;;;;;;;;;;12.50;99.90;;;;;;8355981;28;19928;-70
2023/10/28 21:12:03;;;;;;;;;;;12.50;99.90;;;;;;8355743;28;19992;-70
2023/10/28 21:16:05;;;;;;;;;;;12.50;99.90;;;;;;8358496;28;19932;-70
2023/10/28 21:20:07;;;;;;;;;;;12.50;99.90;;;;;;8341610;28;20315;-70
2023/10/28 21:24:09;;;;;;;;;;;12.50;99.90;;;;;;8354219;28;19973;-70
2023/10/28 21:28:11;;;;;;;;;;;12.50;99.90;;;;;;8358125;28;19924;-70
2023/10/28 21:32:12;;;;;;;;;;;12.50;99.90;;;;;;8356647;28;20395;-70
2023/10/28 21:36:14;;;;;;;;;;;12.50;99.90;;;;;;8357359;28;19925;-70
2023/10/28 21:40:16;;;;;;;;;;;12.50;99.90;;;;;;8357699;28;19925;-70
2023/10/28 21:44:17;;;;;;;;;;;12.50;99.90;;;;;;8355663;28;19924;-70
2023/10/28 21:48:19;;;;;;;;;;;12.60;99.90;;;;;;8357628;28;20369;-70
2023/10/28 21:52:20;;;;;;;;;;;12.60;99.90;;;;;;8352942;28;20453;-70
2023/10/28 21:56:24;;;;;;;;;;;12.50;99.90;;;;;;8340875;28;19929;-70
2023/10/28 22:00:26;;;;;;;;;;;12.50;99.90;;;;;;8356821;28;19935;-70
2023/10/28 22:04:28;;;;;;;;;;;12.50;99.90;;;;;;8355116;28;19977;-70
2023/10/28 22:08:29;;;;;;;;;;;12.50;99.90;;;;;;8353022;28;19964;-70
2023/10/28 22:12:31;;;;;;;;;;;12.50;99.90;;;;;;8353762;28;19936;-70
2023/10/28 22:16:33;;;;;;;;;;;12.60;99.90;;;;;;8355244;28;19925;-70
2023/10/28 22:20:34;;;;;;;;;;;12.60;99.90;;;;;;8355192;28;19939;-70
2023/10/28 22:24:36;;;;;;;;;;;12.70;99.90;;;;;;8339291;28;19955;-70
2023/10/28 22:28:40;;;;;;;;;;;12.70;99.90;;;;;;8354687;28;20205;-70
2023/10/28 22:32:41;;;;;;;;;;;12.70;99.90;;;;;;8336442;28;21562;-70
2023/10/28 22:36:44;;;;;;;;;;;12.70;99.90;;;;;;8355713;28;19942;-70
2023/10/28 22:40:46;;;;;;;;;;;12.70;99.90;;;;;;8352802;28;20193;-70
2023/10/28 22:44:47;;;;;;;;;;;12.70;99.90;;;;;;8355963;28;19936;-70
2023/10/28 22:48:49;;;;;;;;;;;12.80;99.90;;;;;;8352532;28;19925;-70
2023/10/28 22:52:51;;;;;;;;;;;12.80;99.90;;;;;;8356344;28;19925;-70
2023/10/28 22:56:52;;;;;;;;;;;12.70;99.90;;;;;;8354616;28;19966;-70
2023/10/28 23:00:54;;;;;;;;;;;12.80;99.90;;;;;;8354441;28;19925;-69
2023/10/28 23:04:56;;;;;;;;;;;12.80;99.90;;;;;;8354726;28;20376;-70
2023/10/28 23:08:58;;;;;;;;;;;12.80;99.90;;;;;;8343492;28;19924;-70
2023/10/28 23:12:59;;;;;;;;;;;12.90;99.90;;;;;;8354706;28;20477;-69
2023/10/28 23:17:01;;;;;;;;;;;13.00;99.90;;;;;;8351322;28;19968;-70
2023/10/28 23:21:03;;;;;;;;;;;13.00;99.90;;;;;;8355249;28;19987;-69
2023/10/28 23:25:08;;;;;;;;;;;13.00;99.90;;;;;;8354713;28;20331;-70
2023/10/28 23:29:10;;;;;;;;;;;13.00;99.90;;;;;;8333707;28;19979;-70
2023/10/28 23:33:12;;;;;;;;;;;13.10;99.90;;;;;;8353996;28;19933;-70
2023/10/28 23:37:13;;;;;;;;;;;13.10;99.90;;;;;;8352540;28;19964;-70
2023/10/28 23:41:16;;;;;;;;;;;13.00;99.90;;;;;;8355188;28;19925;-70
2023/10/28 23:45:17;;;;;;;;;;;13.00;99.90;;;;;;8351989;28;19976;-70
2023/10/28 23:49:19;;;;;;;;;;;13.00;99.90;;;;;;8354190;28;20074;-70
2023/10/28 23:53:21;;;;;;;;;;;13.10;99.90;;;;;;8354947;28;19932;-69
2023/10/28 23:57:22;;;;;;;;;;;13.10;99.90;;;;;;8351733;28;19929;-70
